Time;durP1;ratioP1;P1;durP2;ratioP2;P2;SDS_P1;SDS_P2;PMS_P1;PMS_P2;Temp;Humidity;BMP_temperature;BMP_pressure;BME280_temperature;BME280_humidity;BME280_pressure;Samples;Min_cycle;Max_cycle;Signal;HPM_P1;HPM_P2
2024/04/22 00:01:04;;;;;;;635.08;148.95;;;8.80;68.50;;;;;;5268233;26;20042;-64
2024/04/22 00:03:35;;;;;;;442.65;82.00;;;8.80;68.10;;;;;;5256608;26;20013;-61
2024/04/22 00:06:03;;;;;;;457.17;119.25;;;8.70;68.00;;;;;;5284956;26;20347;-63
2024/04/22 00:08:34;;;;;;;494.98;89.15;;;8.70;68.10;;;;;;5277396;26;20001;-61
2024/04/22 00:11:05;;;;;;;474.90;83.93;;;8.60;67.90;;;;;;5277439;26;20006;-61
2024/04/22 00:13:36;;;;;;;433.90;74.15;;;8.60;67.90;;;;;;5290006;26;20006;-60
2024/04/22 00:16:04;;;;;;;436.35;82.25;;;8.50;67.90;;;;;;5283720;26;19998;-62
2024/04/22 00:18:35;;;;;;;446.55;76.30;;;8.50;68.20;;;;;;5315950;26;20061;-62
2024/04/22 00:21:03;;;;;;;450.88;79.45;;;8.50;68.50;;;;;;5278448;26;20448;-62
2024/04/22 00:23:34;;;;;;;468.77;86.10;;;8.50;68.60;;;;;;5264111;26;20010;-61
2024/04/22 00:26:05;;;;;;;481.10;81.80;;;8.50;68.50;;;;;;5272408;26;20698;-62
2024/04/22 00:28:35;;;;;;;443.98;75.53;;;8.50;68.50;;;;;;5287873;26;20053;-63
2024/04/22 00:31:03;;;;;;;678.45;155.77;;;8.50;68.50;;;;;;5272804;26;20006;-62
2024/04/22 00:33:34;;;;;;;553.33;107.07;;;8.50;68.50;;;;;;5276760;26;20407;-62
2024/04/22 00:36:02;;;;;;;461.58;75.10;;;8.40;68.50;;;;;;5288870;26;20056;-63
2024/04/22 00:38:33;;;;;;;538.67;95.65;;;8.40;68.90;;;;;;5274230;26;20030;-62
2024/04/22 00:41:00;;;;;;;435.45;70.38;;;8.40;69.10;;;;;;5301297;26;20005;-63
2024/04/22 00:43:34;;;;;;;440.15;70.85;;;8.50;69.20;;;;;;5288465;26;20010;-61
2024/04/22 00:46:02;;;;;;;435.08;69.47;;;8.50;69.10;;;;;;5286354;26;20105;-60
2024/04/22 00:48:33;;;;;;;499.73;88.22;;;8.60;69.00;;;;;;5279981;26;20451;-62
2024/04/22 00:51:02;;;;;;;522.75;94.63;;;8.60;68.90;;;;;;5278336;26;20059;-60
2024/04/22 00:53:33;;;;;;;488.90;81.28;;;8.60;68.90;;;;;;5277427;26;20103;-61
2024/04/22 00:56:01;;;;;;;501.55;85.18;;;8.60;69.00;;;;;;5283397;26;20051;-61
2024/04/22 00:58:34;;;;;;;441.75;71.15;;;8.70;69.00;;;;;;5270866;26;20006;-61
2024/04/22 01:01:05;;;;;;;441.65;71.22;;;8.70;69.10;;;;;;5280854;26;20040;-62
2024/04/22 01:03:37;;;;;;;459.00;75.18;;;8.70;69.00;;;;;;5273996;26;20035;-61
2024/04/22 01:06:05;;;;;;;464.90;75.28;;;8.80;68.90;;;;;;5279921;26;20565;-61
2024/04/22 01:08:35;;;;;;;510.48;93.15;;;8.80;68.90;;;;;;5271000;26;20017;-61
2024/04/22 01:11:03;;;;;;;457.95;75.30;;;8.80;68.80;;;;;;5311798;26;20002;-61
2024/04/22 01:13:37;;;;;;;554.22;105.28;;;8.80;68.60;;;;;;5276663;26;20020;-61
2024/04/22 01:16:05;;;;;;;468.30;77.38;;;8.80;68.50;;;;;;5277976;26;20017;-61
2024/04/22 01:18:36;;;;;;;558.75;105.28;;;8.80;68.40;;;;;;5282663;26;20020;-61
2024/04/22 01:21:04;;;;;;;441.75;70.90;;;8.80;68.50;;;;;;5288014;26;20463;-62
2024/04/22 01:23:37;;;;;;;476.48;81.25;;;8.70;68.30;;;;;;5267897;26;20057;-62
2024/04/22 01:26:07;;;;;;;489.38;83.35;;;8.70;68.40;;;;;;5274098;26;20337;-61
2024/04/22 01:28:38;;;;;;;607.72;118.97;;;8.80;68.50;;;;;;5259150;26;20006;-61
2024/04/22 01:31:06;;;;;;;474.83;80.15;;;8.70;68.40;;;;;;5269241;26;20491;-63
2024/04/22 01:33:36;;;;;;;456.40;74.20;;;8.80;68.50;;;;;;5289388;26;20023;-61
2024/04/22 01:36:05;;;;;;;433.30;69.90;;;8.80;68.50;;;;;;5273016;26;20017;-61
2024/04/22 01:38:38;;;;;;;512.97;91.13;;;8.70;68.50;;;;;;5263520;26;20352;-61
2024/04/22 01:41:05;;;;;;;434.70;69.90;;;8.70;68.60;;;;;;5281634;26;20039;-62
2024/04/22 01:43:36;;;;;;;522.25;90.10;;;8.80;68.70;;;;;;5303560;26;20009;-62
2024/04/22 01:46:05;;;;;;;457.92;73.82;;;8.80;68.70;;;;;;5268755;26;20010;-62
2024/04/22 01:48:36;;;;;;;568.28;109.07;;;8.80;68.60;;;;;;5280077;26;20110;-63
2024/04/22 01:51:04;;;;;;;450.92;75.05;;;8.80;68.70;;;;;;5285223;26;20002;-63
2024/04/22 01:53:38;;;;;;;461.55;75.03;;;8.80;68.60;;;;;;5290286;26;20010;-62
2024/04/22 01:56:06;;;;;;;525.20;93.80;;;8.80;68.50;;;;;;5277905;26;20018;-62
2024/04/22 01:58:36;;;;;;;565.50;107.70;;;8.80;68.60;;;;;;5277286;26;20501;-62
2024/04/22 02:01:04;;;;;;;532.42;93.45;;;8.80;68.60;;;;;;5273867;26;20038;-61
2024/04/22 02:03:35;;;;;;;460.98;75.38;;;8.80;68.60;;;;;;5287031;26;20013;-61
2024/04/22 02:06:03;;;;;;;459.15;74.75;;;8.80;68.80;;;;;;5280111;26;20005;-61
2024/04/22 02:08:33;;;;;;;493.05;82.45;;;8.80;68.90;;;;;;5277575;26;20022;-61
2024/04/22 02:11:04;;;;;;;449.15;72.97;;;8.80;68.70;;;;;;5312999;26;20002;-62
2024/04/22 02:13:35;;;;;;;467.02;77.05;;;8.80;68.80;;;;;;5295304;26;20016;-62
2024/04/22 02:16:03;;;;;;;431.52;68.90;;;8.80;68.90;;;;;;5286099;26;20002;-62
2024/04/22 02:18:34;;;;;;;465.58;77.03;;;8.80;69.20;;;;;;5276687;26;20001;-61
2024/04/22 02:21:02;;;;;;;460.55;74.53;;;8.80;69.30;;;;;;5273796;26;20471;-62
2024/04/22 02:23:33;;;;;;;438.17;71.35;;;8.80;69.30;;;;;;5279133;26;20013;-61
2024/04/22 02:26:03;;;;;;;437.52;70.03;;;8.80;69.20;;;;;;5290382;26;20002;-62
2024/04/22 02:28:34;;;;;;;502.75;86.50;;;8.90;69.10;;;;;;5278771;26;20012;-60
2024/04/22 02:31:02;;;;;;;445.67;72.30;;;8.90;69.00;;;;;;5284096;26;20150;-62
2024/04/22 02:33:32;;;;;;;475.52;78.18;;;8.90;69.00;;;;;;5274937;26;20016;-62
2024/04/22 02:36:00;;;;;;;440.88;70.80;;;8.90;69.00;;;;;;5286118;26;20013;-62
2024/04/22 02:38:30;;;;;;;462.23;75.20;;;8.90;69.00;;;;;;5275519;26;20446;-61
2024/04/22 02:40:58;;;;;;;448.67;72.75;;;8.90;69.20;;;;;;5282683;26;20404;-62
2024/04/22 02:43:31;;;;;;;462.02;75.10;;;8.90;69.30;;;;;;5287582;26;20013;-62
2024/04/22 02:45:59;;;;;;;435.40;70.03;;;9.00;69.30;;;;;;5279821;26;20083;-61
2024/04/22 02:48:30;;;;;;;441.10;71.82;;;9.00;69.30;;;;;;5265307;26;20463;-62
2024/04/22 02:51:01;;;;;;;442.38;72.47;;;9.00;69.00;;;;;;5267880;26;20075;-61
2024/04/22 02:53:32;;;;;;;519.63;90.40;;;8.90;69.00;;;;;;5287040;26;20049;-62
2024/04/22 02:55:59;;;;;;;453.42;76.00;;;8.90;69.30;;;;;;5267213;26;20013;-61
2024/04/22 02:58:32;;;;;;;516.78;89.25;;;8.90;69.00;;;;;;5282213;26;20020;-61
2024/04/22 03:01:05;;;;;;;439.13;72.18;;;8.90;69.00;;;;;;5281541;26;20535;-61
2024/04/22 03:03:35;;;;;;;447.33;73.75;;;8.90;69.10;;;;;;5283186;26;20090;-60
2024/04/22 03:06:04;;;;;;;445.02;71.50;;;9.00;69.20;;;;;;5261617;26;20010;-62
2024/04/22 03:08:34;;;;;;;471.27;78.43;;;9.00;69.20;;;;;;5276209;26;20013;-62
2024/04/22 03:11:03;;;;;;;443.30;71.82;;;9.00;69.20;;;;;;5274200;26;20002;-61
2024/04/22 03:13:36;;;;;;;460.40;75.65;;;9.00;69.20;;;;;;5276741;26;20002;-61
2024/04/22 03:16:04;;;;;;;449.13;72.32;;;9.00;69.10;;;;;;5276003;26;20002;-61
2024/04/22 03:18:35;;;;;;;475.02;79.70;;;8.90;69.10;;;;;;5275945;26;20009;-62
2024/04/22 03:21:03;;;;;;;570.90;118.80;;;9.00;69.30;;;;;;5272990;26;20656;-62
2024/04/22 03:23:33;;;;;;;537.78;98.60;;;9.00;69.40;;;;;;5264501;26;20007;-62
2024/04/22 03:26:01;;;;;;;450.80;73.47;;;9.00;69.40;;;;;;5292174;26;20334;-63
2024/04/22 03:28:31;;;;;;;587.83;108.90;;;9.00;69.40;;;;;;5281953;26;20002;-62
2024/04/22 03:31:02;;;;;;;638.97;143.10;;;9.00;69.30;;;;;;5265722;26;20092;-62
2024/04/22 03:33:35;;;;;;;483.40;81.18;;;9.00;69.30;;;;;;5274652;26;20046;-64
2024/04/22 03:36:04;;;;;;;450.20;73.30;;;9.00;69.40;;;;;;5288364;26;20001;-61
2024/04/22 03:38:35;;;;;;;496.40;83.10;;;9.00;69.30;;;;;;5266088;26;20012;-62
2024/04/22 03:41:06;;;;;;;648.55;145.07;;;9.00;69.20;;;;;;5276397;26;20010;-62
2024/04/22 03:43:36;;;;;;;456.73;74.38;;;9.00;69.20;;;;;;5284663;26;20026;-61
2024/04/22 03:51:42;;;;;;;466.23;75.55;;;9.00;69.20;;;;;;5287746;26;20503;-61
2024/04/22 03:54:13;;;;;;;500.13;87.70;;;9.00;69.20;;;;;;5282426;26;20066;-61
2024/04/22 03:56:41;;;;;;;440.60;70.18;;;8.90;69.10;;;;;;5288137;26;20006;-62
2024/04/22 03:59:11;;;;;;;736.67;152.00;;;8.90;69.10;;;;;;5270715;26;20141;-61
2024/04/22 04:01:45;;;;;;;456.13;74.40;;;8.90;69.10;;;;;;5277004;26;20176;-61
2024/04/22 04:04:13;;;;;;;469.65;76.82;;;8.90;69.20;;;;;;5282123;26;20499;-62
2024/04/22 04:06:43;;;;;;;447.08;72.97;;;8.90;69.70;;;;;;5279104;26;20076;-61
2024/04/22 04:09:11;;;;;;;686.50;146.20;;;8.90;69.40;;;;;;5266125;26;20112;-62
2024/04/22 04:11:42;;;;;;;466.48;76.53;;;9.00;69.60;;;;;;5267613;26;20013;-61
2024/04/22 04:14:12;;;;;;;572.65;108.88;;;9.00;69.60;;;;;;5276362;26;20131;-62
2024/04/22 04:16:45;;;;;;;456.80;75.47;;;9.00;69.50;;;;;;5274793;26;20025;-62
2024/04/22 04:19:13;;;;;;;615.00;127.90;;;9.10;69.50;;;;;;5277165;26;20006;-63
2024/04/22 04:21:44;;;;;;;487.38;81.05;;;9.10;69.40;;;;;;5281651;26;20484;-64
2024/04/22 04:24:13;;;;;;;469.08;76.80;;;9.10;69.50;;;;;;5285337;26;20010;-62
2024/04/22 04:26:44;;;;;;;519.78;89.88;;;9.10;69.40;;;;;;5283850;26;20006;-63
2024/04/22 04:29:12;;;;;;;473.20;77.88;;;9.20;69.50;;;;;;5263334;26;20338;-64
2024/04/22 04:31:45;;;;;;;636.13;136.73;;;9.20;69.50;;;;;;5254647;26;20494;-62
2024/04/22 04:34:14;;;;;;;473.45;77.10;;;9.20;69.40;;;;;;5264586;26;20024;-63
2024/04/22 04:36:44;;;;;;;530.70;91.53;;;9.30;69.50;;;;;;5261543;26;20622;-64
2024/04/22 04:39:12;;;;;;;455.75;74.72;;;9.30;69.40;;;;;;5256340;26;20017;-62
2024/04/22 04:41:43;;;;;;;681.65;136.90;;;9.30;69.40;;;;;;5257906;26;20002;-63
2024/04/22 04:44:11;;;;;;;461.58;75.05;;;9.30;69.40;;;;;;5308951;26;20016;-62
2024/04/22 04:46:45;;;;;;;451.00;73.00;;;9.30;69.40;;;;;;5302903;26;20010;-63
2024/04/22 04:49:12;;;;;;;487.08;85.28;;;9.40;69.40;;;;;;5256016;26;20002;-61
2024/04/22 04:51:43;;;;;;;513.92;86.45;;;9.40;69.50;;;;;;5259252;26;20002;-60
2024/04/22 04:54:11;;;;;;;1093.68;274.25;;;9.40;69.40;;;;;;5245403;26;20872;-62
2024/04/22 04:56:42;;;;;;;497.02;85.00;;;9.40;69.90;;;;;;5256030;26;20022;-60
2024/04/22 04:59:10;;;;;;;547.20;97.60;;;9.50;70.00;;;;;;5268098;26;20491;-60
2024/04/22 05:01:40;;;;;;;502.33;85.72;;;9.50;70.00;;;;;;5264253;26;20013;-59
2024/04/22 05:04:11;;;;;;;622.50;117.80;;;9.60;70.00;;;;;;5258859;26;20104;-56
2024/04/22 05:06:42;;;;;;;709.28;157.02;;;9.70;70.00;;;;;;5257147;26;20702;-61
2024/04/22 05:09:10;;;;;;;551.75;101.40;;;9.70;70.00;;;;;;5266655;26;20076;-62
2024/04/22 05:11:40;;;;;;;498.45;84.93;;;9.70;70.00;;;;;;5267110;26;20012;-61
2024/04/22 05:14:08;;;;;;;585.90;107.65;;;9.70;69.70;;;;;;5270143;26;20010;-61
2024/04/22 05:16:42;;;;;;;541.38;94.70;;;9.80;69.90;;;;;;5294721;26;20048;-62
2024/04/22 05:19:13;;;;;;;542.00;95.65;;;9.80;69.90;;;;;;5268169;26;19997;-60
2024/04/22 05:21:45;;;;;;;530.65;93.00;;;9.80;69.90;;;;;;5276317;26;20010;-60
2024/04/22 05:24:13;;;;;;;491.35;83.53;;;9.90;69.80;;;;;;5267525;26;20005;-61
2024/04/22 05:26:44;;;;;;;545.65;106.30;;;9.90;69.80;;;;;;5270606;26;20020;-60
2024/04/22 05:29:12;;;;;;;654.38;145.38;;;9.90;69.80;;;;;;5263565;26;20703;-60
2024/04/22 05:31:42;;;;;;;540.03;93.95;;;10.00;69.90;;;;;;5269567;26;20093;-59
2024/04/22 05:37:04;;;;;;;506.33;88.35;;;10.10;69.80;;;;;;5273442;26;20014;-60
2024/04/22 05:39:35;;;;;;;650.97;141.90;;;10.10;69.70;;;;;;5259714;26;20436;-61
2024/04/22 05:42:06;;;;;;;547.28;100.13;;;10.20;69.70;;;;;;5277236;26;20001;-62
2024/04/22 05:44:37;;;;;;;534.72;94.30;;;10.20;69.70;;;;;;5275728;26;20020;-61
2024/04/22 05:47:07;;;;;;;515.38;88.63;;;10.20;69.70;;;;;;5275307;26;20010;-59
2024/04/22 05:49:41;;;;;;;526.97;95.72;;;10.30;69.90;;;;;;5276232;26;20574;-60
2024/04/22 05:52:13;;;;;;;506.75;88.90;;;10.40;70.00;;;;;;5274780;26;19997;-62
2024/04/22 05:54:43;;;;;;;485.70;84.00;;;10.40;69.90;;;;;;5274305;26;20009;-64
2024/04/22 05:57:11;;;;;;;475.60;81.72;;;10.50;69.80;;;;;;5275509;26;20021;-64
2024/04/22 05:59:42;;;;;;;491.30;85.68;;;10.50;69.80;;;;;;5279229;26;20030;-61
2024/04/22 06:02:10;;;;;;;526.35;92.82;;;10.60;69.90;;;;;;5270300;26;20005;-60
2024/04/22 06:04:44;;;;;;;558.08;117.40;;;10.60;70.00;;;;;;5298056;26;20688;-57
2024/04/22 06:07:12;;;;;;;538.53;99.30;;;10.70;70.20;;;;;;5272903;26;20005;-57
2024/04/22 06:09:43;;;;;;;500.73;85.60;;;10.70;70.20;;;;;;5303274;26;20017;-61
2024/04/22 06:12:11;;;;;;;531.47;93.35;;;10.80;70.50;;;;;;5280892;26;20017;-58
2024/04/22 06:14:49;;;;;;;502.77;86.07;;;10.90;70.20;;;;;;5283637;26;20017;-56
2024/04/22 06:17:16;;;;;;;480.08;82.32;;;10.90;70.30;;;;;;5262451;26;20001;-55
2024/04/22 06:19:50;;;;;;;475.15;80.75;;;11.00;70.30;;;;;;5281137;26;20083;-59
2024/04/22 06:22:18;;;;;;;536.95;94.47;;;11.00;70.40;;;;;;5271574;26;20026;-58
2024/04/22 06:24:49;;;;;;;492.33;83.70;;;11.10;70.40;;;;;;5254578;26;20076;-56
2024/04/22 06:27:17;;;;;;;736.30;174.13;;;11.20;70.30;;;;;;5264357;26;20016;-55
2024/04/22 06:29:47;;;;;;;677.55;145.43;;;11.30;70.40;;;;;;5279434;26;20010;-60
2024/04/22 06:32:15;;;;;;;498.15;85.15;;;11.40;70.90;;;;;;5276016;26;20045;-60
2024/04/22 06:34:49;;;;;;;528.08;93.78;;;11.40;70.20;;;;;;5277005;26;20129;-57
2024/04/22 06:37:17;;;;;;;502.67;85.40;;;11.50;70.20;;;;;;5283177;26;20006;-55
2024/04/22 06:39:48;;;;;;;836.42;199.15;;;11.50;70.70;;;;;;5261983;26;20020;-54
2024/04/22 06:42:16;;;;;;;489.15;83.30;;;11.60;70.10;;;;;;5281044;26;20018;-58
2024/04/22 06:44:46;;;;;;;503.98;88.15;;;11.70;70.10;;;;;;5279055;26;20041;-59
2024/04/22 06:47:14;;;;;;;511.35;88.20;;;11.70;70.00;;;;;;5282347;26;20076;-57
2024/04/22 06:49:45;;;;;;;534.42;93.20;;;11.80;70.20;;;;;;5277881;26;20429;-59
2024/04/22 06:52:15;;;;;;;640.65;142.88;;;11.90;70.20;;;;;;5267813;26;20661;-56
2024/04/22 06:54:46;;;;;;;485.48;83.95;;;11.90;69.90;;;;;;5279085;26;20009;-57
2024/04/22 06:57:15;;;;;;;508.38;86.68;;;12.00;70.00;;;;;;5273398;26;20065;-53
2024/04/22 06:59:46;;;;;;;516.20;88.20;;;12.10;69.90;;;;;;5281120;26;20017;-57
2024/04/22 07:02:15;;;;;;;627.45;125.88;;;12.10;69.70;;;;;;5267776;26;20005;-55
2024/04/22 07:04:52;;;;;;;474.52;80.97;;;12.10;69.40;;;;;;5283819;26;20384;-56
2024/04/22 07:07:23;;;;;;;561.40;100.82;;;12.10;69.50;;;;;;5272600;26;20002;-54
2024/04/22 07:09:53;;;;;;;525.47;91.50;;;12.10;69.50;;;;;;5278846;26;20002;-55
2024/04/22 07:12:21;;;;;;;609.03;119.85;;;12.10;69.80;;;;;;5297885;26;20001;-59
2024/04/22 07:14:52;;;;;;;649.90;134.82;;;12.30;70.00;;;;;;5303021;26;20488;-59
2024/04/22 07:17:20;;;;;;;507.73;86.88;;;12.40;70.10;;;;;;5305003;26;20018;-59
2024/04/22 07:19:53;;;;;;;491.27;84.18;;;12.40;69.60;;;;;;5292138;26;20045;-56
2024/04/22 07:22:27;;;;;;;507.77;87.07;;;12.40;69.60;;;;;;5272114;26;20527;-56
2024/04/22 07:24:58;;;;;;;534.30;94.53;;;12.50;70.60;;;;;;5272267;26;20065;-54
2024/04/22 07:27:32;;;;;;;497.10;85.68;;;12.70;70.20;;;;;;5280351;26;21003;-59
2024/04/22 07:30:04;;;;;;;571.03;106.00;;;12.90;70.20;;;;;;5277423;26;20001;-52
2024/04/22 07:32:33;;;;;;;530.97;93.82;;;13.00;70.10;;;;;;5290380;26;20103;-54
2024/04/22 07:35:05;;;;;;;523.95;91.05;;;13.10;70.10;;;;;;5285180;26;20891;-58
2024/04/22 07:37:42;;;;;;;689.20;159.77;;;13.20;70.40;;;;;;5272990;26;20530;-59
2024/04/22 07:40:18;;;;;;;504.60;88.70;;;13.40;70.40;;;;;;5299573;26;20061;-59
2024/04/22 07:42:46;;;;;;;;;;;13.60;70.60;;;;;;5292628;26;20026;-53
2024/04/22 07:45:18;;;;;;;518.85;91.90;;;13.90;70.40;;;;;;5293424;26;19927;-59
2024/04/22 07:47:49;;;;;;;603.00;117.20;;;14.10;70.40;;;;;;5297534;26;20028;-57
2024/04/22 07:50:20;;;;;;;690.45;155.52;;;14.40;71.20;;;;;;5285171;26;20100;-57
2024/04/22 07:52:51;;;;;;;540.80;98.82;;;14.70;70.70;;;;;;5285144;26;20012;-58
2024/04/22 07:55:22;;;;;;;523.08;95.68;;;15.20;70.90;;;;;;5275979;26;20009;-58
2024/04/22 07:57:52;;;;;;;527.75;97.45;;;15.70;70.50;;;;;;5300524;26;20148;-59
2024/04/22 08:00:24;;;;;;;527.53;97.50;;;15.90;69.50;;;;;;5273865;26;20103;-58
2024/04/22 08:02:52;;;;;;;526.85;96.30;;;15.90;68.50;;;;;;5275223;26;20393;-57
2024/04/22 08:05:23;;;;;;;735.38;179.68;;;15.80;67.80;;;;;;5266684;26;20006;-60
2024/04/22 08:07:59;;;;;;;513.25;92.35;;;15.70;67.00;;;;;;5273694;26;20014;-60
2024/04/22 08:10:30;;;;;;;;;;;15.60;67.60;;;;;;5279676;26;20010;-60
2024/04/22 08:12:58;;;;;;;504.95;91.00;;;15.50;67.20;;;;;;5278681;26;19926;-59
2024/04/22 08:15:28;;;;;;;685.15;166.27;;;16.10;70.20;;;;;;5271031;26;20021;-60
2024/04/22 08:17:56;;;;;;;522.45;98.95;;;16.70;69.30;;;;;;5280142;26;20083;-61
2024/04/22 08:20:27;;;;;;;584.15;116.70;;;16.80;67.90;;;;;;5275103;26;20577;-60
2024/04/22 08:22:59;;;;;;;515.50;95.82;;;16.70;66.50;;;;;;5278858;26;20006;-60
2024/04/22 08:25:29;;;;;;;817.88;205.75;;;16.50;66.00;;;;;;5268826;26;20028;-59
2024/04/22 08:27:57;;;;;;;516.33;96.82;;;16.20;65.80;;;;;;5278774;26;20013;-61
2024/04/22 08:30:28;;;;;;;600.58;115.22;;;16.00;65.80;;;;;;5277160;26;20041;-56
2024/04/22 08:32:56;;;;;;;535.60;97.68;;;15.80;65.80;;;;;;5305168;26;20040;-58
2024/04/22 08:35:27;;;;;;;744.72;177.07;;;15.90;67.40;;;;;;5293353;26;20175;-57
2024/04/22 08:37:57;;;;;;;544.35;102.07;;;16.40;68.70;;;;;;5309884;26;20020;-55
2024/04/22 08:40:28;;;;;;;530.80;99.28;;;16.70;67.90;;;;;;5305530;26;20064;-58
2024/04/22 08:42:56;;;;;;;609.22;121.38;;;16.90;66.90;;;;;;5299490;26;20028;-58
2024/04/22 08:45:28;;;;;;;736.95;182.45;;;16.90;66.10;;;;;;5296371;26;20037;-55
2024/04/22 08:47:56;;;;;;;574.35;110.72;;;16.80;65.00;;;;;;5298580;26;20026;-58
2024/04/22 08:50:26;;;;;;;522.83;100.13;;;16.70;65.90;;;;;;5312127;26;20014;-59
2024/04/22 08:53:01;;;;;;;588.95;120.07;;;17.50;66.80;;;;;;5298434;26;20028;-58
2024/04/22 08:55:31;;;;;;;698.92;175.52;;;17.70;65.00;;;;;;5298125;26;20024;-58
2024/04/22 08:58:00;;;;;;;509.45;98.32;;;18.30;64.50;;;;;;5295907;26;20012;-56
2024/04/22 09:00:30;;;;;;;545.78;111.13;;;18.60;63.80;;;;;;5286873;26;20014;-56
2024/04/22 09:03:01;;;;;;;544.63;110.65;;;19.10;63.00;;;;;;5298495;26;20019;-59
2024/04/22 09:05:29;;;;;;;724.28;199.55;;;20.20;63.30;;;;;;5293858;26;20009;-59
2024/04/22 09:08:05;;;;;;;527.10;119.05;;;21.70;63.00;;;;;;5299718;26;20092;-59
2024/04/22 09:10:34;;;;;;;535.65;120.63;;;22.40;60.20;;;;;;5304695;26;20001;-59
2024/04/22 09:13:24;;;;;;;737.60;197.98;;;21.70;56.80;;;;;;5267831;26;20329;-61
2024/04/22 09:15:54;;;;;;;536.88;118.68;;;21.00;58.80;;;;;;5276110;26;20021;-58
2024/04/22 09:18:25;;;;;;;546.35;123.18;;;20.90;59.30;;;;;;5285184;26;20352;-59
2024/04/22 09:21:07;;;;;;;531.80;117.55;;;20.50;59.00;;;;;;5279327;26;20079;-59
2024/04/22 09:23:41;;;;;;;680.50;176.15;;;21.50;61.60;;;;;;5262367;26;20061;-61
2024/04/22 09:26:10;;;;;;;513.25;111.82;;;21.60;58.00;;;;;;5278131;26;20108;-61
2024/04/22 09:28:41;;;;;;;552.47;122.78;;;21.60;58.90;;;;;;5273793;26;20005;-60
2024/04/22 09:31:13;;;;;;;565.45;129.70;;;21.70;58.70;;;;;;5278777;26;20077;-63
2024/04/22 09:33:45;;;;;;;509.17;122.82;;;22.80;59.70;;;;;;5273637;26;20025;-65
2024/04/22 09:36:14;;;;;;;539.88;121.72;;;23.40;58.30;;;;;;5296648;26;20020;-61
2024/04/22 09:38:50;;;;;;;547.25;124.72;;;23.10;56.50;;;;;;5279788;26;20009;-63
2024/04/22 09:41:19;;;;;;;;;;;23.40;57.60;;;;;;5282220;26;20415;-61
2024/04/22 09:43:55;;;;;;;550.58;127.30;;;23.80;56.40;;;;;;5279151;26;20009;-64
2024/04/22 09:46:39;;;;;;;566.63;136.48;;;24.70;56.40;;;;;;5275363;26;20002;-62
2024/04/22 09:49:13;;;;;;;560.53;141.60;;;25.90;55.30;;;;;;5301801;26;20076;-64
2024/04/22 09:51:44;;;;;;;580.67;167.60;;;27.10;55.10;;;;;;5264558;26;20104;-62
2024/04/22 09:54:18;;;;;;;534.65;151.95;;;27.80;52.90;;;;;;5274053;26;20292;-60
2024/04/22 09:56:47;;;;;;;531.97;152.65;;;28.40;53.00;;;;;;5278370;26;20005;-66
2024/04/22 09:59:20;;;;;;;612.05;183.77;;;28.70;51.50;;;;;;5279083;26;20431;-62
2024/04/22 10:01:49;;;;;;;578.25;178.10;;;29.20;51.50;;;;;;5273538;26;20037;-67
2024/04/22 10:04:20;;;;;;;568.80;185.70;;;30.00;51.40;;;;;;5275660;26;20083;-63
2024/04/22 10:06:50;;;;;;;552.92;176.23;;;30.50;51.10;;;;;;5281787;26;20006;-64
2024/04/22 10:09:23;;;;;;;599.28;196.05;;;30.50;50.20;;;;;;5275880;26;20524;-61
2024/04/22 10:11:52;;;;;;;585.70;194.88;;;30.20;48.50;;;;;;5274824;26;20013;-62
2024/04/22 10:14:27;;;;;;;563.05;182.93;;;30.20;49.90;;;;;;5301435;26;20127;-65
2024/04/22 10:16:59;;;;;;;554.10;185.48;;;30.30;47.90;;;;;;5297491;26;20093;-61
2024/04/22 10:19:31;;;;;;;568.78;190.30;;;30.30;48.10;;;;;;5287307;26;20014;-62
2024/04/22 10:22:01;;;;;;;582.75;186.50;;;30.10;47.30;;;;;;5278584;26;20068;-63
2024/04/22 10:24:39;;;;;;;557.67;175.40;;;30.10;46.90;;;;;;5280272;26;20019;-63
2024/04/22 10:27:08;;;;;;;562.45;174.30;;;30.10;45.10;;;;;;5273120;26;20081;-63
2024/04/22 10:29:44;;;;;;;745.05;253.73;;;29.40;43.40;;;;;;5271930;26;20024;-60
2024/04/22 10:32:11;;;;;;;547.72;165.05;;;28.50;43.90;;;;;;5298610;26;20017;-60
2024/04/22 10:34:43;;;;;;;555.83;158.65;;;27.70;44.40;;;;;;5282069;26;20045;-62
2024/04/22 10:37:12;;;;;;;556.03;146.10;;;27.00;44.20;;;;;;5284826;26;20013;-63
2024/04/22 10:39:47;;;;;;;742.35;213.93;;;25.60;44.10;;;;;;5290242;26;20072;-67
2024/04/22 10:42:15;;;;;;;538.80;125.85;;;24.40;46.30;;;;;;5288710;26;20013;-64
2024/04/22 10:44:47;;;;;;;571.42;132.30;;;23.60;46.70;;;;;;5288183;26;20024;-61
2024/04/22 10:47:15;;;;;;;540.20;124.00;;;23.00;48.40;;;;;;5287374;26;20475;-63
2024/04/22 10:49:48;;;;;;;721.55;205.52;;;22.80;50.00;;;;;;5267188;26;20013;-64
2024/04/22 10:52:17;;;;;;;562.03;127.00;;;23.00;49.10;;;;;;5277150;26;20341;-66
2024/04/22 10:54:50;;;;;;;535.55;120.85;;;22.90;48.80;;;;;;5275669;26;20013;-61
2024/04/22 10:57:20;;;;;;;545.08;125.20;;;23.00;49.20;;;;;;5291564;26;20005;-63
2024/04/22 10:59:52;;;;;;;719.92;198.25;;;23.00;49.00;;;;;;5263269;26;20009;-61
2024/04/22 11:02:20;;;;;;;614.67;140.90;;;22.70;47.80;;;;;;5286191;26;20009;-62
2024/04/22 11:04:52;;;;;;;515.92;114.30;;;22.20;48.30;;;;;;5283395;26;20019;-67
2024/04/22 11:07:23;;;;;;;619.50;145.65;;;22.00;49.20;;;;;;5299350;26;20686;-63
2024/04/22 11:09:58;;;;;;;719.05;189.65;;;21.80;49.90;;;;;;5268522;26;20103;-60
2024/04/22 11:12:27;;;;;;;637.13;149.38;;;21.50;50.50;;;;;;5269901;26;20075;-64
2024/04/22 11:15:00;;;;;;;550.72;116.50;;;21.30;51.70;;;;;;5279587;26;20137;-63
2024/04/22 11:17:28;;;;;;;515.53;117.82;;;21.10;52.40;;;;;;5276949;26;20053;-60
2024/04/22 11:20:11;;;;;;;577.97;136.23;;;21.10;53.10;;;;;;5303283;26;20006;-57
2024/04/22 11:22:40;;;;;;;527.65;111.55;;;21.00;53.60;;;;;;5299151;26;20013;-61
2024/04/22 11:25:13;;;;;;;559.85;117.28;;;20.60;50.40;;;;;;5276233;26;20064;-61
2024/04/22 11:27:42;;;;;;;565.15;122.13;;;20.00;51.10;;;;;;5276338;26;20014;-64
2024/04/22 11:30:13;;;;;;;716.50;168.10;;;19.80;52.90;;;;;;5271067;26;20009;-59
2024/04/22 11:32:41;;;;;;;551.15;117.35;;;19.70;52.80;;;;;;5278033;26;20611;-60
2024/04/22 11:35:12;;;;;;;555.20;121.13;;;19.70;53.70;;;;;;5275689;26;20005;-60
2024/04/22 11:37:40;;;;;;;542.85;130.90;;;19.70;53.70;;;;;;5305963;26;20002;-63
2024/04/22 11:40:15;;;;;;;541.78;114.10;;;19.80;54.40;;;;;;5283678;26;20021;-61
2024/04/22 11:42:43;;;;;;;525.20;108.60;;;20.10;55.30;;;;;;5297157;26;20047;-65
2024/04/22 11:45:13;;;;;;;571.35;123.07;;;20.00;53.20;;;;;;5286207;26;20013;-65
2024/04/22 11:47:42;;;;;;;527.80;125.50;;;19.90;53.70;;;;;;5291837;26;20001;-63
2024/04/22 11:50:12;;;;;;;528.90;107.25;;;19.70;53.10;;;;;;5276305;26;20004;-62
2024/04/22 11:52:41;;;;;;;595.03;144.32;;;19.50;53.90;;;;;;5266668;26;20057;-61
2024/04/22 11:55:14;;;;;;;536.22;110.00;;;19.60;54.80;;;;;;5278421;26;20057;-65
2024/04/22 11:57:42;;;;;;;652.30;144.63;;;19.70;54.80;;;;;;5287621;26;20024;-60
2024/04/22 12:00:13;;;;;;;557.70;120.20;;;19.80;55.20;;;;;;5286970;26;20078;-62
2024/04/22 12:02:41;;;;;;;806.47;208.32;;;20.00;55.30;;;;;;5247665;26;20028;-64
2024/04/22 12:05:13;;;;;;;527.22;112.93;;;20.00;55.00;;;;;;5290748;26;20013;-61
2024/04/22 12:07:43;;;;;;;520.45;106.45;;;19.90;53.50;;;;;;5286953;26;20079;-63
2024/04/22 12:10:16;;;;;;;548.35;115.30;;;19.50;52.30;;;;;;5278400;26;20882;-61
2024/04/22 12:12:44;;;;;;;569.42;113.13;;;19.10;52.90;;;;;;5277883;26;20005;-64
2024/04/22 12:15:15;;;;;;;685.22;165.55;;;18.80;53.80;;;;;;5272725;26;20013;-64
2024/04/22 12:17:46;;;;;;;519.28;106.13;;;18.80;54.30;;;;;;5278853;26;20009;-60
2024/04/22 12:20:14;;;;;;;580.38;122.70;;;18.90;54.60;;;;;;5289843;26;20009;-61
2024/04/22 12:22:45;;;;;;;530.92;106.85;;;19.10;55.30;;;;;;5281872;26;20005;-62
2024/04/22 12:25:16;;;;;;;569.83;117.70;;;19.10;54.80;;;;;;5278267;26;20088;-63
2024/04/22 12:27:47;;;;;;;714.90;170.40;;;19.00;54.60;;;;;;5266530;26;20138;-62
2024/04/22 12:30:15;;;;;;;594.00;124.93;;;19.10;54.90;;;;;;5270491;26;20079;-62
2024/04/22 12:32:45;;;;;;;513.33;101.40;;;19.20;54.70;;;;;;5278854;26;20468;-62
2024/04/22 12:35:14;;;;;;;520.97;103.65;;;19.20;54.90;;;;;;5274827;26;20037;-63
2024/04/22 12:37:45;;;;;;;557.63;112.55;;;19.30;55.00;;;;;;5282867;26;20001;-63
2024/04/22 12:40:17;;;;;;;529.03;108.55;;;19.30;54.70;;;;;;5275158;26;20020;-64
2024/04/22 12:42:48;;;;;;;556.85;110.55;;;19.20;54.80;;;;;;5287544;26;20112;-64